EHFD

F3-fb-1 Sea

F3-fb-1 Sea, The Netherlands
METAR EHFD 181455Z AUTO 30015KT 9999 NSC 05/01 Q0993 W///H///
Observed Flight Rules
Jan-18 @ 14:55 UTC (28 minutes ago) Visual Flight Rules
Wind Visibility Clouds
300° at 15 knots 10,000+ meters
  • Clear skies
Temperatures Readings
Current 5°C / 41°F
Dewpoint 1°C / 34°F
Humidity 76%
Altimeter 29.32" Hg
Pressure 993 hPa
Elevation 50
METAR EHFD 181455Z AUTO 30015KT 9999 NSC 05/01 Q0993 W///H///
Observed Flight Rules
Jan-18 @ 14:55 UTC
(28 minutes ago)
VFR
Wind Visibility
300° at 15 knots 10,000+ meters
Clouds
  • Clear skies
Temperature Dewpoint
5°C / 41°F 1°C / 34°F
Humidity Altimeter Pressure
76% 29.32" Hg 993 hPa